Accueil
METAR-TAF:

METAR-TAF

Aéroports :

Aéroport de Lydd

Lydd, Angleterre

latitude: 50-57N, longitude: 000-56E, altitude: 3 m

Observation

Le bulletin a été fait il y a 29 minutes, à 18:50 UTC
Vent 5 kt de sud/sud-ouest
Température 20°C
Humidité 94%
Pression 1013 hPa
Visibilité: 7000 m

METAR: EGMD 141850Z AUTO 21005KT 7000 OVC023/// 20/19 Q1013

Heure: 20:19 (19:19 UTC)

Prévision

Le bulletin a été fait il y a 2 heures et 21 minutes, à 16:58 UTC
Prévision valable du 14 à 18 UTC au 15 à 03 UTC
Vent 7 kt de sud
Visibilité 10 km ou plus
Nuages fragmentés à une hauteur de 1600 ft
Temporairement
du 14 à 18 UTC au 15 à 03 UTC
Nuages fragmentés à une hauteur de 900 ft
Probabilité 30% :
Temporairement
du 14 à 18 UTC au 15 à 03 UTC
Visibilité: 3000 m
Nuages fragmentés à une hauteur de 300 ft
orage, forte pluie

TAF: EGMD 141658Z 1418/1503 17007KT 9999 BKN016 TEMPO 1418/1503 BKN009 PROB30 TEMPO 1418/1503 3000 +TSRA BKN003

Observations et prévisions météorologiques de plus de 4000 aéroports (messages METAR et TAF).

Les stations disponibles sont représentées par des disques jaunes et rouges sur la carte.

Passer la souris dessus pour voir le nom de la station.

Cliquer dessus pour voir les observations et prévisions météorologiques.

Pour changer de carte: cliquez sur les boutons verts avec une croix noire pour zoomer, sur le bouton vert avec un tiret pour effectuer un zoom arrière, ou sur les flèches vertes pour les cartes adjacentes.


METAR-TAF: